Aérodrome :
LOGIN :

S'inscrire | Disclaimer

   EN    FR    IT 

 










Légende :    VFR   VFR Marginal   IFR   IFR Intensif   IFR Très Intensif
Visi : 
Plafond : 
>= 8 km
>= 3000ft
5 à 8 km
1000 à 3000 ft
1500m à 5 km
500 à 1000 ft
800 à 1500m
200 à 500 ft
< 800m
< 200 ft
Symboles :   Orages  Brouillard  Fortes neiges  Fortes précipitations  Vent > 20 kt
SIGMETs :   Divers  Orages  Givrage  Turbulence  Onde Orograph.  Cendres Volcan.






- Altitude de l'aérodrome : 162 ft
- Code IATA : BOD


LFBD - Bordeaux / Merignac

DERNIER METAR :
  • 130700Z AUTO 29022KT 9999 FEW016 SCT028 BKN042 12/10 Q0997 TEMPO 3000 SHRA BKN010TCU BECMG 28020G40KT

METARs EXPIRÉS :
  • 130630Z AUTO 29023KT 9999 FEW017/// SCT025/// BKN035/// ///TCU 12/11 Q0997 TEMPO 3000 SHRA BKN010TCU BECMG 28020G40KT
  • 130600Z AUTO 29030G40KT 6000 -RA SCT015/// BKN023/// BKN041/// ///TCU 12/10 Q0996 TEMPO 28030G55KT 3000 SHRA BKN010TCU
  • 130530Z AUTO 28025G42KT 9000 -RA SCT010/// BKN015/// BKN022/// ///TCU 13/12 Q0995 TEMPO 28030G55KT 3000 SHRA BKN010TCU
  • 130500Z AUTO 29029G47KT 6000 -RA BKN012/// OVC018/// ///CB 13/12 Q0995
  • 130430Z AUTO 28031G45KT 9000 1900 RA BKN014/// OVC021/// ///TCU 14/12 Q0995

TAF AMD TAF LFBD
Valide du 13 à 06h jusqu'au 14 à 12h UTC


130547Z 1306/1412 28020G40KT 9999 BKN020 TX14/1318Z TN12/1313Z
TEMPO 1306/1308 28030G55KT
PROB40
TEMPO 1306/1311 3000 SHRA BKN010TCU
BECMG 1311/1313 29020G30KT
TEMPO 1311/1316 3000 SHRA BKN015TCU
BECMG 1316/1318 4000 -RA OVC010
TEMPO 1318/1410 2000 RA OVC005
PROB40
TEMPO 1320/1403 27020G40KT
ATIS : +33 5 57 92 81 04



MET'MAP, la Météo Aéronautique d'un coup d'oeil ! - Copyright ORBIFLY Décembre 2007 - Disclaimer

ORBIFLY MET'MAP TEAM :

Programmation & Développement : Alexandra Zaïnal
Sur une idée originale de : Baudouin d'Aumeries
Assistance à la programmation : Marc-Olivier Méhu
Soutien technique & logistique : Manuel Goepfert

Contact : metmap@orbifly.com




SOURCES & CREDITS :

   NOAA